Webcam Flughafen St.Gallen-Altenrhein

Live-Bilder und Zeitraffer LSZR / ACH.

 

Live aus Altenrhein
LIVE
LSZR 250520Z VRB02KT CAVOK 06/03 Q1009 NOSIG RMK A
Zeitraffer heute
2020-02-25 00:14:39
LSZR 242250Z AUTO 23004KT CAVOK 08/03 Q1013